Meteo Giornale » Osservazioni meteo Italia » Cagliari-Elmas

ore: 22:50 - Osservazioni Meteo Cagliari-Elmas
Lat. 39° 15' N Lon. 9° 4' E Alt. 4 metri s.l.m.

coperto_pioggia Europe/Rome

14 °C

Pioggia Debole

Temp. 24 Ore

11 °C

24 °C

Nord

11.1 Km/h

Dew point 14 °C

Umidità 100 %

Visibilità  10 Km

Il sole sorge alle ore 06:44

Il sole tramonta alle ore 17:31

Data e Ora Cielo e Fenomeni T °C DP °C Um. % Pres. hPa Vis. km Vento km/h
Oggi h: 22:50 coperto_pioggia Pioggia Debole 14 14 100 1013 10 N 11.1
Oggi h: 22:20 coperto_pioggia Pioggia Debole 14 14 100 1012 10 N/NE 13
Oggi h: 21:50 coperto_pioggia Pioggia 15 14 93 1013 9 N 22.2
Oggi h: 21:20 coperto_pioggia Pioggia Debole 15 14 93 1012 10 N/NO 13
Oggi h: 20:50 poco_nuvoloso Poco Nuvoloso 16 13 82 1012 10 O 9.3
Oggi h: 20:20 nuvoloso_piovaschi Debole Rovescio di Pioggia 16 14 87 1012 9 O/NO 9.3
Oggi h: 19:50 nuvoloso_piovaschi Debole Rovescio di Pioggia 16 14 87 1011 9 NO 16.7
Oggi h: 19:20 nuvoloso_piovaschi Debole Rovescio di Pioggia 16 15 93 1011 9 N 11.1
Oggi h: 18:50 nuvoloso_piovaschi Debole Rovescio di Pioggia 16 16 100 1011 8 N 14.8
Oggi h: 18:20 nuvoloso_piovaschi Debole Rovescio di Pioggia 17 16 93 1010 7 O/NO 14.8
Oggi h: 17:50 nuvoloso_piovaschi Rovescio di Pioggia 16 16 100 1009 4 O/NO 27.8
Oggi h: 16:50 molto_nuvoloso Molto Nuvoloso 22 14 60 1008 10 SO 25.9
Oggi h: 16:20 nuvoloso Nuvoloso 22 14 60 1009 10 O/SO 22.2
Oggi h: 15:50 poco_nuvoloso Poco Nuvoloso 23 13 53 1009 10 O/SO 22.2
Oggi h: 15:20 poco_nuvoloso Poco Nuvoloso 23 13 53 1009 10 O/SO 20.3
Oggi h: 14:50 poco_nuvoloso Poco Nuvoloso 24 12 47 1009 10 O 20.3
Oggi h: 14:20 poco_nuvoloso Poco Nuvoloso 24 11 43 1010 10 O/NO 24
Oggi h: 13:50 poco_nuvoloso Poco Nuvoloso 24 13 50 1010 10 O/SO 20.3
Oggi h: 13:20 poco_nuvoloso Poco Nuvoloso 23 16 64 1011 10 S/SO 16.7
Oggi h: 12:50 poco_nuvoloso Poco Nuvoloso 22 17 73 1011 10 S 24
Oggi h: 12:20 sereno Sereno 22 16 68 1011 10 S 25.9
Oggi h: 11:50 poco_nuvoloso Poco Nuvoloso 22 16 68 1012 10 S 25.9
Oggi h: 11:20 sereno Sereno 22 16 68 1012 10 S 18.5
Oggi h: 10:50 sereno Sereno 21 16 73 1013 10 S 18.5
Oggi h: 10:20 sereno Sereno 21 16 73 1013 10 S/SE 13
Oggi h: 09:20 sereno Sereno 18 16 88 1014 10 S/SE 7.4
Oggi h: 08:50 sereno Sereno 15 15 100 1014 10 N 3.7
Oggi h: 08:20 sereno Sereno 14 14 100 1014 10 N 3.7
Oggi h: 07:50 sereno Sereno 12 12 100 1014 10 N 5.5
Oggi h: 07:20 sereno Sereno 12 12 100 1013 10 N 5.5
Oggi h: 06:50 nebbia Nebbia a Strati 11 11 100 1013 3 N 1.8
Oggi h: 06:20 nebbia Nebbia a Strati 12 12 100 1014 3 N 3.7
Oggi h: 05:50 sereno Sereno 11 11 100 1014 10 N 3.7
Oggi h: 02:50 sereno Sereno 13 13 100 1015 10 N 1.8
Oggi h: 02:20 sereno Sereno 12 12 100 1015 10 N 3.7
Oggi h: 01:50 sereno Sereno 12 12 100 1016 10 N/NE 7.4
Oggi h: 01:20 sereno Sereno 13 12 93 1016 10 N 5.5
Oggi h: 01:50 sereno Sereno 13 12 93 1016 10 N 3.7
Oggi h: 01:20 sereno Sereno 13 12 93 1017 10 N 5.5
Oggi h: 00:50 sereno Sereno 13 12 93 1017 10 N 5.5
Oggi h: 00:20 sereno Sereno 14 13 93 1017 10 N 7.4
Ieri h: 23:50 sereno Sereno 14 13 93 1017 10 N 1.8